createdAt,value
2018-08-31T00:01:03.474Z,2.40
2018-08-31T00:05:54.245Z,1.77
2018-08-31T00:09:02.861Z,2.50
2018-08-31T00:11:49.906Z,1.80
2018-08-31T00:14:19.219Z,2.30
2018-08-31T00:16:48.630Z,1.63
2018-08-31T00:19:18.023Z,2.17
2018-08-31T00:21:47.271Z,1.80
2018-08-31T00:24:33.416Z,1.90
2018-08-31T00:27:19.872Z,1.63
2018-08-31T00:30:05.993Z,2.47
2018-08-31T00:33:24.039Z,1.80
2018-08-31T00:40:23.458Z,1.87
2018-08-31T00:44:14.696Z,2.40
2018-08-31T00:46:45.378Z,2.03
2018-08-31T00:49:14.632Z,1.80
2018-08-31T00:51:44.024Z,2.10
2018-08-31T00:54:13.342Z,2.00
2018-08-31T00:56:42.614Z,2.10
2018-08-31T00:59:11.894Z,2.03
2018-08-31T01:01:41.156Z,2.00
2018-08-31T01:04:10.824Z,1.83
2018-08-31T01:06:40.096Z,2.10
2018-08-31T01:09:09.338Z,2.10
2018-08-31T01:11:38.978Z,1.60
2018-08-31T01:14:08.270Z,1.70
2018-08-31T01:16:37.610Z,1.73
2018-08-31T01:19:07.031Z,1.77
2018-08-31T01:21:36.355Z,1.63
2018-08-31T01:24:05.711Z,1.77
2018-08-31T01:26:34.924Z,1.73
2018-08-31T01:29:04.248Z,2.10
2018-08-31T01:31:33.523Z,1.80
2018-08-31T01:34:03.217Z,1.63
2018-08-31T01:36:32.524Z,1.83
2018-08-31T01:39:01.887Z,1.40
2018-08-31T01:41:31.207Z,1.80
2018-08-31T01:44:00.486Z,1.60
2018-08-31T01:46:30.905Z,2.00
2018-08-31T01:49:00.154Z,1.40
2018-08-31T01:51:29.438Z,1.67
2018-08-31T01:53:58.719Z,1.50
2018-08-31T01:56:28.025Z,1.40
2018-08-31T01:58:57.334Z,1.70
2018-08-31T02:01:26.587Z,1.77
2018-08-31T02:03:58.594Z,1.50
2018-08-31T02:06:27.924Z,1.30
2018-08-31T02:09:02.628Z,2.00
2018-08-31T02:11:31.922Z,1.57
2018-08-31T02:14:01.193Z,1.50
2018-08-31T02:16:30.807Z,1.20
2018-08-31T02:19:00.100Z,1.43
2018-08-31T02:21:30.516Z,1.50
2018-08-31T02:23:59.952Z,1.83
2018-08-31T02:26:29.326Z,1.60
2018-08-31T02:28:58.608Z,1.40
2018-08-31T02:31:27.967Z,1.73
2018-08-31T02:33:57.222Z,1.97
2018-08-31T02:36:26.548Z,1.30
2018-08-31T02:38:56.244Z,1.30
2018-08-31T02:41:28.582Z,1.80
2018-08-31T02:43:58.064Z,1.77
2018-08-31T02:46:27.467Z,1.30
2018-08-31T02:48:57.604Z,1.93
2018-08-31T02:51:26.866Z,1.80
2018-08-31T02:53:56.142Z,2.03
2018-08-31T02:56:25.828Z,2.17
2018-08-31T02:58:55.114Z,1.97
2018-08-31T03:01:24.751Z,1.70
2018-08-31T03:03:54.040Z,2.00
2018-08-31T03:06:23.363Z,1.80
2018-08-31T03:08:52.615Z,1.67
2018-08-31T03:11:22.014Z,1.80
2018-08-31T03:13:51.344Z,1.40
2018-08-31T03:16:20.715Z,1.60
2018-08-31T03:18:50.101Z,2.00
2018-08-31T03:21:19.447Z,1.50
2018-08-31T03:23:48.672Z,1.67
2018-08-31T03:26:18.014Z,2.10
2018-08-31T03:28:47.296Z,2.10
2018-08-31T03:31:16.658Z,1.90
2018-08-31T03:33:45.939Z,2.10
2018-08-31T03:36:15.241Z,1.67
2018-08-31T03:38:44.588Z,1.73
2018-08-31T03:41:13.959Z,1.80
2018-08-31T03:43:43.191Z,1.80
2018-08-31T03:46:12.460Z,2.07
2018-08-31T03:48:41.759Z,1.93
2018-08-31T03:51:11.083Z,1.90
2018-08-31T03:53:40.388Z,1.90
2018-08-31T03:56:09.803Z,2.20
2018-08-31T03:58:39.088Z,1.80
2018-08-31T04:01:08.386Z,1.93
2018-08-31T04:03:37.669Z,2.10
2018-08-31T04:06:07.011Z,1.63
2018-08-31T04:08:36.367Z,1.90
2018-08-31T04:11:05.727Z,2.33
2018-08-31T04:13:35.054Z,2.27
2018-08-31T04:16:06.383Z,2.63
2018-08-31T04:18:35.631Z,2.50
2018-08-31T04:21:04.979Z,2.13
2018-08-31T04:23:34.295Z,2.37
2018-08-31T04:26:03.649Z,3.20
2018-08-31T04:28:33.315Z,2.47
2018-08-31T04:31:02.616Z,2.03
2018-08-31T04:33:31.861Z,1.97
2018-08-31T04:36:01.524Z,2.20
2018-08-31T04:38:30.879Z,2.00
2018-08-31T04:41:00.251Z,2.10
2018-08-31T04:43:29.539Z,1.97
2018-08-31T04:45:58.754Z,2.10
2018-08-31T04:48:28.094Z,1.97
2018-08-31T04:50:57.343Z,2.20
2018-08-31T04:53:26.612Z,2.47
2018-08-31T04:55:55.899Z,2.13
2018-08-31T04:58:25.194Z,2.47
2018-08-31T05:00:55.518Z,2.67
2018-08-31T05:03:25.030Z,1.90
2018-08-31T05:05:54.550Z,2.23
2018-08-31T05:08:23.987Z,2.10
2018-08-31T05:10:53.273Z,2.20
2018-08-31T05:13:22.612Z,2.00
2018-08-31T05:15:51.877Z,2.17
2018-08-31T05:18:21.138Z,2.37
2018-08-31T05:20:50.470Z,2.57
2018-08-31T05:23:19.711Z,2.13
2018-08-31T05:25:49.004Z,2.60
2018-08-31T05:28:18.288Z,2.90
2018-08-31T05:30:47.560Z,2.50
2018-08-31T05:33:18.917Z,2.57
2018-08-31T05:35:48.204Z,2.57
2018-08-31T05:38:17.911Z,3.30
2018-08-31T05:40:47.275Z,3.87
2018-08-31T05:43:16.610Z,3.27
2018-08-31T05:45:45.941Z,3.30
2018-08-31T05:48:15.216Z,4.03
2018-08-31T05:50:44.599Z,3.50
2018-08-31T05:53:13.921Z,3.40
2018-08-31T05:55:43.263Z,3.80
2018-08-31T05:58:12.510Z,3.70
2018-08-31T06:00:41.787Z,4.10
2018-08-31T06:03:11.062Z,5.37
2018-08-31T06:05:40.361Z,4.57
2018-08-31T06:08:09.625Z,4.93
2018-08-31T06:10:38.917Z,6.47
2018-08-31T06:13:08.207Z,4.33
2018-08-31T06:15:37.507Z,6.20
2018-08-31T06:18:06.901Z,4.60
2018-08-31T06:20:36.158Z,4.50
2018-08-31T06:23:05.451Z,6.50
2018-08-31T06:25:34.879Z,5.13
2018-08-31T06:28:04.402Z,5.10
2018-08-31T06:30:33.846Z,4.37
2018-08-31T06:33:05.246Z,4.90
2018-08-31T06:35:34.864Z,5.73
2018-08-31T06:38:04.150Z,4.70
2018-08-31T06:40:33.447Z,4.67
2018-08-31T06:43:02.885Z,4.30
2018-08-31T06:45:32.404Z,4.57
2018-08-31T06:48:01.668Z,5.23
2018-08-31T06:50:30.947Z,4.30
2018-08-31T06:53:00.587Z,4.83
2018-08-31T06:55:29.870Z,5.27
2018-08-31T06:57:59.225Z,4.77
2018-08-31T07:00:28.610Z,5.40
2018-08-31T07:02:57.863Z,4.30
2018-08-31T07:05:33.695Z,4.23
2018-08-31T07:08:03.420Z,4.67
2018-08-31T07:10:32.666Z,5.60
2018-08-31T07:13:02.016Z,4.50
2018-08-31T07:15:31.282Z,4.80
2018-08-31T07:18:00.558Z,3.83
2018-08-31T07:20:29.850Z,5.20
2018-08-31T07:22:59.146Z,4.57
2018-08-31T07:25:40.918Z,5.87
2018-08-31T07:28:10.179Z,4.90
2018-08-31T07:30:39.442Z,4.63
2018-08-31T07:33:09.820Z,5.93
2018-08-31T07:35:39.166Z,4.10
2018-08-31T07:38:08.518Z,5.50
2018-08-31T07:40:37.806Z,4.77
2018-08-31T07:43:07.150Z,3.90
2018-08-31T07:45:36.503Z,3.97
2018-08-31T07:48:05.781Z,3.80
2018-08-31T07:50:39.515Z,3.50
2018-08-31T07:53:08.804Z,7.53
2018-08-31T07:55:38.095Z,6.03
2018-08-31T07:58:07.476Z,5.60
2018-08-31T08:00:36.988Z,6.50
2018-08-31T08:03:06.314Z,4.53
2018-08-31T08:05:35.920Z,5.13
2018-08-31T08:08:05.311Z,3.87
2018-08-31T08:10:34.632Z,4.10
2018-08-31T08:13:03.899Z,5.50
2018-08-31T08:15:33.155Z,4.07
2018-08-31T08:18:02.592Z,3.50
2018-08-31T08:20:31.859Z,3.67
2018-08-31T08:23:01.455Z,3.20
2018-08-31T08:25:31.595Z,3.07
2018-08-31T08:28:00.956Z,3.10
2018-08-31T08:30:30.276Z,3.27
2018-08-31T08:33:01.992Z,2.30
2018-08-31T08:35:31.581Z,2.60
2018-08-31T08:38:00.881Z,2.63
2018-08-31T08:40:30.227Z,2.23
2018-08-31T08:42:59.607Z,3.00
2018-08-31T08:45:28.942Z,2.90
2018-08-31T08:47:58.335Z,2.80
2018-08-31T08:50:27.694Z,2.17
2018-08-31T08:52:57.015Z,1.90
2018-08-31T08:55:35.874Z,2.20
2018-08-31T08:58:05.296Z,2.20
2018-08-31T09:00:34.667Z,2.27
2018-08-31T09:03:05.045Z,2.20
2018-08-31T09:05:34.376Z,1.80
2018-08-31T09:08:04.395Z,1.77
2018-08-31T09:10:33.695Z,2.47
2018-08-31T09:13:02.948Z,2.37
2018-08-31T09:15:32.260Z,1.90
2018-08-31T09:18:01.531Z,2.70
2018-08-31T09:20:30.812Z,2.90
2018-08-31T09:23:00.134Z,2.53
2018-08-31T09:25:29.544Z,2.70
2018-08-31T09:27:58.995Z,2.10
2018-08-31T09:30:33.612Z,2.00
2018-08-31T09:33:02.917Z,2.20
2018-08-31T09:35:32.250Z,2.30
2018-08-31T09:38:01.666Z,1.80
2018-08-31T09:40:30.974Z,2.10
2018-08-31T09:43:00.274Z,1.87
2018-08-31T09:45:29.619Z,2.40
2018-08-31T09:47:58.907Z,1.87
2018-08-31T09:50:28.219Z,2.03
2018-08-31T09:52:57.494Z,2.10
2018-08-31T09:55:27.123Z,2.13
2018-08-31T09:57:56.990Z,1.70
2018-08-31T10:00:31.836Z,1.63
2018-08-31T10:03:06.164Z,1.83
2018-08-31T10:05:36.632Z,1.67
2018-08-31T10:08:05.955Z,1.70
2018-08-31T10:10:35.339Z,1.70
2018-08-31T10:13:04.639Z,2.17
2018-08-31T10:15:33.954Z,1.60
2018-08-31T10:18:03.214Z,1.70
2018-08-31T10:20:32.478Z,1.90
2018-08-31T10:23:01.888Z,2.07
2018-08-31T10:25:31.268Z,2.10
2018-08-31T10:28:00.666Z,1.47
2018-08-31T10:30:30.088Z,1.50
2018-08-31T10:33:00.536Z,1.73
2018-08-31T10:35:30.215Z,2.43
2018-08-31T10:37:59.515Z,1.47
2018-08-31T10:40:28.915Z,1.53
2018-08-31T10:42:59.254Z,1.37
2018-08-31T10:45:28.610Z,1.40
2018-08-31T10:47:57.974Z,1.70
2018-08-31T10:50:27.207Z,1.20
2018-08-31T10:52:58.674Z,1.40
2018-08-31T10:55:28.058Z,1.40
2018-08-31T10:57:58.421Z,1.20
2018-08-31T11:00:27.723Z,1.47
2018-08-31T11:02:57.027Z,1.40
2018-08-31T11:05:26.328Z,1.73
2018-08-31T11:07:55.635Z,1.27
2018-08-31T11:10:25.008Z,1.17
2018-08-31T11:12:54.694Z,1.10
2018-08-31T11:15:24.032Z,1.30
2018-08-31T11:17:53.346Z,0.97
2018-08-31T11:20:22.618Z,0.90
2018-08-31T11:22:51.926Z,1.30
2018-08-31T11:25:21.368Z,0.93
2018-08-31T11:27:50.685Z,1.30
2018-08-31T11:30:20.226Z,0.80
2018-08-31T11:32:49.574Z,0.60
2018-08-31T11:35:19.036Z,1.00
2018-08-31T11:37:48.343Z,1.30
2018-08-31T11:40:17.737Z,1.00
2018-08-31T11:42:49.127Z,1.07
2018-08-31T11:45:18.460Z,1.13
2018-08-31T11:47:47.859Z,1.30
2018-08-31T11:50:17.097Z,1.20
2018-08-31T11:52:46.358Z,0.93
2018-08-31T11:55:15.635Z,1.40
2018-08-31T11:57:44.959Z,1.00
2018-08-31T12:00:14.363Z,1.20
2018-08-31T12:02:43.678Z,1.17
2018-08-31T12:05:12.911Z,1.00
2018-08-31T12:07:42.256Z,1.27
2018-08-31T12:10:11.495Z,1.43
2018-08-31T12:12:41.041Z,1.10
2018-08-31T12:15:10.407Z,1.07
2018-08-31T12:17:39.636Z,1.50
2018-08-31T12:20:09.226Z,1.20
2018-08-31T12:22:38.571Z,1.10
2018-08-31T12:25:08.238Z,1.40
2018-08-31T12:27:37.562Z,1.50
2018-08-31T12:30:07.079Z,1.13
2018-08-31T12:32:36.388Z,1.47
2018-08-31T12:35:06.816Z,1.33
2018-08-31T12:37:36.163Z,1.27
2018-08-31T12:40:05.911Z,1.60
2018-08-31T12:42:35.190Z,1.00
2018-08-31T12:45:04.510Z,1.10
2018-08-31T12:47:33.794Z,1.20
2018-08-31T12:50:03.183Z,1.33
2018-08-31T12:52:32.443Z,1.07
2018-08-31T12:55:01.703Z,1.00
2018-08-31T12:57:31.046Z,1.17
2018-08-31T13:00:01.189Z,1.23
2018-08-31T13:02:31.826Z,1.40
2018-08-31T13:05:01.846Z,1.10
2018-08-31T13:07:31.182Z,0.97
2018-08-31T13:10:00.451Z,1.07
2018-08-31T13:12:29.722Z,0.80
2018-08-31T13:14:59.091Z,0.90
2018-08-31T13:17:28.380Z,1.13
2018-08-31T13:19:57.726Z,1.53
2018-08-31T13:22:27.124Z,1.20
2018-08-31T13:24:56.423Z,1.10
2018-08-31T13:27:25.974Z,1.10
2018-08-31T13:29:55.289Z,1.10
2018-08-31T13:32:24.679Z,0.93
2018-08-31T13:34:53.931Z,1.20
2018-08-31T13:37:23.310Z,0.80
2018-08-31T13:39:52.741Z,0.77
2018-08-31T13:42:22.050Z,0.90
2018-08-31T13:44:51.349Z,0.90
2018-08-31T13:47:20.634Z,0.80
2018-08-31T13:49:50.210Z,2.37
2018-08-31T13:52:19.389Z,1.00
2018-08-31T13:54:48.824Z,1.10
2018-08-31T13:57:18.301Z,0.97
2018-08-31T13:59:47.815Z,1.20
2018-08-31T14:02:17.100Z,0.83
2018-08-31T14:04:46.419Z,1.20
2018-08-31T14:07:15.752Z,1.00
2018-08-31T14:09:45.167Z,1.20
2018-08-31T14:12:14.501Z,0.90
2018-08-31T14:14:43.819Z,0.80
2018-08-31T14:17:13.073Z,0.90
2018-08-31T14:19:42.318Z,0.90
2018-08-31T14:22:11.627Z,0.70
2018-08-31T14:24:40.977Z,1.20
2018-08-31T14:27:10.351Z,1.00
2018-08-31T14:29:39.594Z,1.20
2018-08-31T14:32:08.809Z,0.90
2018-08-31T14:34:38.107Z,1.17
2018-08-31T14:37:07.325Z,1.20
2018-08-31T14:39:36.639Z,0.90
2018-08-31T14:42:05.986Z,1.10
2018-08-31T14:44:35.736Z,1.37
2018-08-31T14:47:04.923Z,1.30
2018-08-31T14:49:34.380Z,1.17
2018-08-31T14:52:03.510Z,1.00
2018-08-31T14:54:32.922Z,1.30
2018-08-31T14:57:02.193Z,1.20
2018-08-31T14:59:31.474Z,1.10
2018-08-31T15:02:01.575Z,1.03
2018-08-31T15:04:30.858Z,1.50
2018-08-31T15:07:00.107Z,0.80
2018-08-31T15:09:29.450Z,1.07
2018-08-31T15:11:58.730Z,1.30
2018-08-31T15:14:28.007Z,1.47
2018-08-31T15:16:57.291Z,1.40
2018-08-31T15:19:26.548Z,1.10
2018-08-31T15:21:55.815Z,1.27
2018-08-31T15:24:25.379Z,1.40
2018-08-31T15:26:54.789Z,1.53
2018-08-31T15:29:24.074Z,1.37
2018-08-31T15:31:53.402Z,1.30
2018-08-31T15:34:22.727Z,1.47
2018-08-31T15:36:52.129Z,2.23
2018-08-31T15:39:21.336Z,1.50
2018-08-31T15:41:50.668Z,1.23
2018-08-31T15:44:20.034Z,1.23
2018-08-31T15:46:49.331Z,1.43
2018-08-31T15:49:18.589Z,1.33
2018-08-31T15:51:47.927Z,1.67
2018-08-31T15:54:17.157Z,1.63
2018-08-31T15:56:46.495Z,1.60
2018-08-31T15:59:15.810Z,1.37
2018-08-31T16:01:45.120Z,1.23
2018-08-31T16:04:14.371Z,1.50
2018-08-31T16:06:43.686Z,1.23
2018-08-31T16:09:13.089Z,1.40
2018-08-31T16:11:42.466Z,1.40
2018-08-31T16:14:11.824Z,1.40
2018-08-31T16:16:41.177Z,1.37
2018-08-31T16:19:10.471Z,1.30
2018-08-31T16:21:39.707Z,1.30
2018-08-31T16:24:09.026Z,1.90
2018-08-31T16:26:38.362Z,1.30
2018-08-31T16:29:07.810Z,1.37
2018-08-31T16:31:37.062Z,1.23
2018-08-31T16:34:06.429Z,1.00
2018-08-31T16:36:35.735Z,1.40
2018-08-31T16:39:06.515Z,1.17
2018-08-31T16:41:35.814Z,1.50
2018-08-31T16:44:05.216Z,1.10
2018-08-31T16:46:34.752Z,1.00
2018-08-31T16:49:04.038Z,1.10
2018-08-31T16:51:33.334Z,1.13
2018-08-31T16:54:02.685Z,1.57
2018-08-31T16:56:31.946Z,1.77
2018-08-31T16:59:01.299Z,1.50
2018-08-31T17:01:30.542Z,1.30
2018-08-31T17:03:59.868Z,1.80
2018-08-31T17:06:29.152Z,1.83
2018-08-31T17:08:58.435Z,1.80
2018-08-31T17:11:27.919Z,1.73
2018-08-31T17:13:57.233Z,1.90
2018-08-31T17:16:27.312Z,1.60
2018-08-31T17:18:56.587Z,1.63
2018-08-31T17:21:25.895Z,1.70
2018-08-31T17:23:55.186Z,1.47
2018-08-31T17:26:29.881Z,1.60
2018-08-31T17:29:04.384Z,2.20
2018-08-31T17:31:38.961Z,1.40
2018-08-31T17:34:13.474Z,1.53
2018-08-31T17:36:48.098Z,1.60
2018-08-31T17:39:17.456Z,1.70
2018-08-31T17:41:46.749Z,1.80
2018-08-31T17:44:16.208Z,2.00
2018-08-31T17:46:45.604Z,2.00
2018-08-31T17:49:14.954Z,1.73
2018-08-31T17:51:44.329Z,1.70
2018-08-31T17:54:13.595Z,1.63
2018-08-31T17:56:42.867Z,1.80
2018-08-31T17:59:12.143Z,1.53
2018-08-31T18:01:41.551Z,1.50
2018-08-31T18:04:10.822Z,1.30
2018-08-31T18:06:40.116Z,1.80
2018-08-31T18:09:09.445Z,1.80
2018-08-31T18:11:38.837Z,1.60
2018-08-31T18:14:08.135Z,2.00
2018-08-31T18:16:37.520Z,1.60
2018-08-31T18:19:06.835Z,2.63
2018-08-31T18:21:36.542Z,1.80
2018-08-31T18:24:05.813Z,1.70
2018-08-31T18:26:35.063Z,1.77
2018-08-31T18:29:04.407Z,2.03
2018-08-31T18:31:33.774Z,1.67
2018-08-31T18:34:03.082Z,1.93
2018-08-31T18:36:32.385Z,2.00
2018-08-31T18:39:01.653Z,1.90
2018-08-31T18:41:31.078Z,1.60
2018-08-31T18:44:00.448Z,1.70
2018-08-31T18:46:29.860Z,2.10
2018-08-31T18:48:59.258Z,2.00
2018-08-31T18:51:28.916Z,2.00
2018-08-31T18:53:58.194Z,2.00
2018-08-31T18:56:27.649Z,2.27
2018-08-31T18:58:57.062Z,2.10
2018-08-31T19:01:26.469Z,1.70
2018-08-31T19:03:55.731Z,2.10
2018-08-31T19:06:25.385Z,2.00
2018-08-31T19:08:55.314Z,1.97
2018-08-31T19:11:24.710Z,2.07
2018-08-31T19:13:54.633Z,1.90
2018-08-31T19:16:24.093Z,1.70
2018-08-31T19:18:53.810Z,2.47
2018-08-31T19:21:23.175Z,2.10
2018-08-31T19:23:52.551Z,1.90
2018-08-31T19:26:22.405Z,2.07
2018-08-31T19:28:52.560Z,1.67
2018-08-31T19:31:22.001Z,2.23
2018-08-31T19:33:51.356Z,1.73
2018-08-31T19:36:20.705Z,1.90
2018-08-31T19:38:50.015Z,1.87
2018-08-31T19:41:19.758Z,2.03
2018-08-31T19:43:49.548Z,2.03
2018-08-31T19:46:18.903Z,2.13
2018-08-31T19:48:48.642Z,1.87
2018-08-31T19:51:18.204Z,2.10
2018-08-31T19:53:47.668Z,1.77
2018-08-31T19:56:17.003Z,2.60
2018-08-31T19:58:46.329Z,2.00
2018-08-31T20:01:15.595Z,2.00
2018-08-31T20:03:44.893Z,2.23
2018-08-31T20:06:14.131Z,2.43
2018-08-31T20:08:43.437Z,1.80
2018-08-31T20:11:12.699Z,2.20
2018-08-31T20:13:42.106Z,1.70
2018-08-31T20:16:11.468Z,2.10
2018-08-31T20:18:40.735Z,1.70
2018-08-31T20:21:10.067Z,2.73
2018-08-31T20:23:39.794Z,2.40
2018-08-31T20:26:08.994Z,1.90
2018-08-31T20:28:38.354Z,2.03
2018-08-31T20:31:07.643Z,2.37
2018-08-31T20:33:36.958Z,2.30
2018-08-31T20:36:06.463Z,2.30
2018-08-31T20:38:35.829Z,1.93
2018-08-31T20:41:05.004Z,1.90
2018-08-31T20:43:34.350Z,1.73
2018-08-31T20:46:05.923Z,1.90
2018-08-31T20:48:35.170Z,1.60
2018-08-31T20:51:04.441Z,1.67
2018-08-31T20:53:33.807Z,1.87
2018-08-31T20:56:03.122Z,1.70
2018-08-31T20:58:32.442Z,2.20
2018-08-31T21:01:01.710Z,2.00
2018-08-31T21:03:31.062Z,1.93
2018-08-31T21:06:00.436Z,1.77
2018-08-31T21:08:29.792Z,2.40
2018-08-31T21:10:59.063Z,1.80
2018-08-31T21:13:28.300Z,2.27
2018-08-31T21:15:57.822Z,1.90
2018-08-31T21:18:27.075Z,1.47
2018-08-31T21:20:56.712Z,1.70
2018-08-31T21:23:25.989Z,1.80
2018-08-31T21:25:55.298Z,2.20
2018-08-31T21:28:24.614Z,1.93
2018-08-31T21:30:53.979Z,2.13
2018-08-31T21:33:23.377Z,2.00
2018-08-31T21:35:56.699Z,1.83
2018-08-31T21:38:26.051Z,4.10
2018-08-31T21:40:55.340Z,1.87
2018-08-31T21:43:26.692Z,1.70
2018-08-31T21:45:55.982Z,2.47
2018-08-31T21:48:25.259Z,1.90
2018-08-31T21:50:54.563Z,2.00
2018-08-31T21:53:24.886Z,1.60
2018-08-31T21:55:54.191Z,2.17
2018-08-31T21:58:23.416Z,1.70
2018-08-31T22:00:56.795Z,1.67
2018-08-31T22:03:26.073Z,2.30
2018-08-31T22:05:55.359Z,1.87
2018-08-31T22:08:24.712Z,2.10
2018-08-31T22:10:54.091Z,2.00
2018-08-31T22:13:23.734Z,1.80
2018-08-31T22:15:53.033Z,1.77
2018-08-31T22:18:22.351Z,1.90
2018-08-31T22:20:51.750Z,1.63
2018-08-31T22:23:21.140Z,1.67
2018-08-31T22:25:50.465Z,2.20
2018-08-31T22:28:19.933Z,1.70
2018-08-31T22:30:51.467Z,1.70
2018-08-31T22:33:20.925Z,1.67
2018-08-31T22:35:50.231Z,1.90
2018-08-31T22:38:19.588Z,1.90
2018-08-31T22:40:48.903Z,2.30
2018-08-31T22:43:18.236Z,2.53
2018-08-31T22:45:47.511Z,2.20
2018-08-31T22:48:16.907Z,2.40
2018-08-31T22:50:46.178Z,1.77
2018-08-31T22:53:15.471Z,2.23
2018-08-31T22:55:44.774Z,1.90
2018-08-31T22:58:14.020Z,2.30
2018-08-31T23:00:43.282Z,1.70
2018-08-31T23:03:12.530Z,2.10
2018-08-31T23:05:42.871Z,1.60
2018-08-31T23:08:12.527Z,1.60
2018-08-31T23:10:41.912Z,1.80
2018-08-31T23:13:11.184Z,1.90
2018-08-31T23:15:40.568Z,1.60
2018-08-31T23:18:09.816Z,2.10
2018-08-31T23:20:39.186Z,1.83
2018-08-31T23:23:13.602Z,1.40
2018-08-31T23:25:48.934Z,1.57
2018-08-31T23:28:19.094Z,2.20
2018-08-31T23:30:48.419Z,1.50
2018-08-31T23:33:17.862Z,2.70
2018-08-31T23:35:47.203Z,1.80
2018-08-31T23:38:16.493Z,2.33
2018-08-31T23:40:45.770Z,1.70
2018-08-31T23:43:15.106Z,2.30
2018-08-31T23:45:44.334Z,1.97
2018-08-31T23:48:13.711Z,2.50
2018-08-31T23:50:43.030Z,2.07
2018-08-31T23:53:12.299Z,2.60
2018-08-31T23:55:41.565Z,1.97
2018-08-31T23:58:10.866Z,2.53
